createdAt,value
2022-12-17T00:01:10.169Z,-0.41
2022-12-17T00:03:56.945Z,-0.45
2022-12-17T00:06:42.591Z,-0.48
2022-12-17T00:09:28.081Z,-0.52
2022-12-17T00:12:13.459Z,-0.56
2022-12-17T00:14:58.959Z,-0.61
2022-12-17T00:17:44.595Z,-0.64
2022-12-17T00:20:30.061Z,-0.69
2022-12-17T00:23:20.662Z,-0.73
2022-12-17T00:26:11.199Z,-0.83
2022-12-17T00:28:57.078Z,-0.80
2022-12-17T00:31:46.519Z,-0.84
2022-12-17T00:34:32.272Z,-0.89
2022-12-17T00:37:18.455Z,-0.91
2022-12-17T00:40:03.634Z,-0.92
2022-12-17T00:42:49.287Z,-0.97
2022-12-17T00:45:34.420Z,-1.00
2022-12-17T00:48:19.994Z,-1.03
2022-12-17T00:51:05.455Z,-1.04
2022-12-17T00:53:50.985Z,-1.04
2022-12-17T00:56:36.226Z,-1.04
2022-12-17T00:59:21.646Z,-1.03
2022-12-17T01:02:06.963Z,-1.02
2022-12-17T01:04:52.730Z,-1.00
2022-12-17T01:07:39.228Z,-1.00
2022-12-17T01:10:25.139Z,-0.98
2022-12-17T01:13:10.259Z,-0.96
2022-12-17T01:15:56.705Z,-0.98
2022-12-17T01:18:42.032Z,-0.99
2022-12-17T01:21:27.793Z,-0.97
2022-12-17T01:24:13.079Z,-1.03
2022-12-17T01:26:58.763Z,-0.94
2022-12-17T01:29:44.105Z,-0.92
2022-12-17T01:32:30.795Z,-0.87
2022-12-17T01:35:15.935Z,-0.82
2022-12-17T01:38:01.534Z,-0.80
2022-12-17T01:40:46.590Z,-0.78
2022-12-17T01:43:32.782Z,-0.77
2022-12-17T01:46:18.658Z,-0.76
2022-12-17T01:49:06.277Z,-0.79
2022-12-17T01:52:06.755Z,-0.79
2022-12-17T01:55:04.230Z,-0.77
2022-12-17T01:57:49.652Z,-0.76
2022-12-17T02:00:36.623Z,-0.75
2022-12-17T02:03:23.071Z,-0.76
2022-12-17T02:06:29.901Z,-0.76
2022-12-17T02:09:36.834Z,-0.82
2022-12-17T02:12:48.134Z,-0.88
2022-12-17T02:16:15.304Z,-1.01
2022-12-17T02:19:12.035Z,-1.20
2022-12-17T02:21:59.375Z,-1.22
2022-12-17T02:25:03.269Z,-1.22
2022-12-17T02:27:52.630Z,-1.12
2022-12-17T02:30:38.601Z,-1.06
2022-12-17T02:33:24.363Z,-1.02
2022-12-17T02:36:16.812Z,-0.99
2022-12-17T02:39:02.152Z,-0.95
2022-12-17T02:42:05.211Z,-0.91
2022-12-17T02:44:53.993Z,-0.88
2022-12-17T02:47:41.843Z,-0.85
2022-12-17T02:50:29.175Z,-0.83
2022-12-17T02:53:17.690Z,-0.86
2022-12-17T02:56:03.514Z,-0.77
2022-12-17T02:58:51.935Z,-0.73
2022-12-17T03:01:37.493Z,-0.68
2022-12-17T03:04:23.902Z,-0.66
2022-12-17T03:07:09.152Z,-0.63
2022-12-17T03:09:54.976Z,-0.58
2022-12-17T03:12:42.666Z,-0.55
2022-12-17T03:15:28.273Z,-0.51
2022-12-17T03:18:13.565Z,-0.48
2022-12-17T03:20:58.984Z,-0.45
2022-12-17T03:23:44.450Z,-0.41
2022-12-17T03:26:34.397Z,-0.37
2022-12-17T03:29:19.819Z,-0.36
2022-12-17T03:32:05.346Z,-0.34
2022-12-17T03:34:50.489Z,-0.34
2022-12-17T03:37:36.165Z,-0.34
2022-12-17T03:40:21.666Z,-0.36
2022-12-17T03:43:06.964Z,-0.36
2022-12-17T03:45:52.424Z,-0.37
2022-12-17T03:48:38.179Z,-0.34
2022-12-17T03:51:23.556Z,-0.32
2022-12-17T03:54:09.018Z,-0.29
2022-12-17T03:56:54.443Z,-0.25
2022-12-17T03:59:40.068Z,-0.27
2022-12-17T04:02:25.743Z,-0.23
2022-12-17T04:05:16.596Z,-0.14
2022-12-17T04:08:05.221Z,-0.10
2022-12-17T04:10:50.892Z,-0.07
2022-12-17T04:13:44.220Z,-0.03
2022-12-17T04:16:29.860Z,0.01
2022-12-17T04:19:15.306Z,0.07
2022-12-17T04:22:00.783Z,0.11
2022-12-17T04:24:46.418Z,0.15
2022-12-17T04:27:31.870Z,0.19
2022-12-17T04:30:17.289Z,0.20
2022-12-17T04:33:02.908Z,0.24
2022-12-17T04:35:48.435Z,0.26
2022-12-17T04:38:33.866Z,0.27
2022-12-17T04:41:19.339Z,0.30
2022-12-17T04:44:04.767Z,0.32
2022-12-17T04:46:50.303Z,0.34
2022-12-17T04:49:35.387Z,0.37
2022-12-17T04:52:20.844Z,0.39
2022-12-17T04:55:06.303Z,0.41
2022-12-17T04:57:52.324Z,0.43
2022-12-17T05:00:37.800Z,0.42
2022-12-17T05:03:32.667Z,0.42
2022-12-17T05:06:19.742Z,0.38
2022-12-17T05:09:05.804Z,0.42
2022-12-17T05:11:51.234Z,0.40
2022-12-17T05:14:36.966Z,0.35
2022-12-17T05:17:22.381Z,0.34
2022-12-17T05:20:07.997Z,0.33
2022-12-17T05:22:53.373Z,0.32
2022-12-17T05:25:38.748Z,0.32
2022-12-17T05:28:24.258Z,0.31
2022-12-17T05:31:14.203Z,0.26
2022-12-17T05:34:00.579Z,0.25
2022-12-17T05:36:46.349Z,0.28
2022-12-17T05:39:51.589Z,0.25
2022-12-17T05:42:36.969Z,0.24
2022-12-17T05:45:22.815Z,0.28
2022-12-17T05:48:08.269Z,0.28
2022-12-17T05:50:53.571Z,0.29
2022-12-17T05:53:39.528Z,0.29
2022-12-17T05:56:25.168Z,0.28
2022-12-17T05:59:10.997Z,0.28
2022-12-17T06:01:56.455Z,0.27
2022-12-17T06:04:42.279Z,0.27
2022-12-17T06:07:27.813Z,0.27
2022-12-17T06:10:13.257Z,0.21
2022-12-17T06:12:58.686Z,0.20
2022-12-17T06:15:44.194Z,0.17
2022-12-17T06:18:29.428Z,0.16
2022-12-17T06:21:31.767Z,0.13
2022-12-17T06:24:17.511Z,0.08
2022-12-17T06:27:03.205Z,0.06
2022-12-17T06:29:48.592Z,0.02
2022-12-17T06:32:34.047Z,-0.01
2022-12-17T06:35:19.578Z,-0.05
2022-12-17T06:38:05.106Z,-0.10
2022-12-17T06:40:50.517Z,-0.15
2022-12-17T06:43:36.207Z,-0.14
2022-12-17T06:46:22.088Z,-0.18
2022-12-17T06:49:07.810Z,-0.33
2022-12-17T06:51:53.138Z,-0.33
2022-12-17T06:54:38.711Z,-0.37
2022-12-17T06:57:24.046Z,-0.49
2022-12-17T07:00:09.458Z,-0.43
2022-12-17T07:02:55.809Z,-0.46
2022-12-17T07:05:41.533Z,-0.48
2022-12-17T07:08:27.194Z,-0.49
2022-12-17T07:11:12.624Z,-0.51
2022-12-17T07:13:58.135Z,-0.51
2022-12-17T07:16:43.580Z,-0.53
2022-12-17T07:19:28.713Z,-0.55
2022-12-17T07:22:16.217Z,-0.58
2022-12-17T07:25:01.379Z,-0.59
2022-12-17T07:27:46.983Z,-0.61
2022-12-17T07:30:32.307Z,-0.67
2022-12-17T07:33:19.860Z,-0.63
2022-12-17T07:36:05.018Z,-0.65
2022-12-17T07:38:51.445Z,-0.66
2022-12-17T07:41:47.465Z,-0.67
2022-12-17T07:44:32.887Z,-0.68
2022-12-17T07:47:18.048Z,-0.68
2022-12-17T07:50:03.527Z,-0.70
2022-12-17T07:52:48.987Z,-0.72
2022-12-17T07:55:34.463Z,-0.83
2022-12-17T07:58:24.812Z,-0.78
2022-12-17T08:01:10.286Z,-0.80
2022-12-17T08:03:56.149Z,-0.81
2022-12-17T08:06:41.583Z,-0.86
2022-12-17T08:09:27.046Z,-0.85
2022-12-17T08:12:12.556Z,-0.89
2022-12-17T08:15:14.643Z,-0.90
2022-12-17T08:18:00.058Z,-0.90
2022-12-17T08:20:45.527Z,-0.89
2022-12-17T08:23:31.067Z,-0.89
2022-12-17T08:26:16.632Z,-0.90
2022-12-17T08:29:02.151Z,-0.90
2022-12-17T08:31:48.012Z,-0.88
2022-12-17T08:34:47.248Z,-0.92
2022-12-17T08:37:32.934Z,-0.87
2022-12-17T08:40:18.335Z,-0.83
2022-12-17T08:43:03.847Z,-0.81
2022-12-17T08:45:49.367Z,-0.77
2022-12-17T08:48:35.080Z,-0.72
2022-12-17T08:51:20.563Z,-0.79
2022-12-17T08:54:05.884Z,-0.63
2022-12-17T08:56:51.446Z,-0.57
2022-12-17T08:59:37.987Z,-0.53
2022-12-17T09:02:23.497Z,-0.47
2022-12-17T09:05:09.450Z,-0.40
2022-12-17T09:08:06.312Z,-0.36
2022-12-17T09:10:51.950Z,-0.29
2022-12-17T09:13:37.602Z,-0.25
2022-12-17T09:16:23.463Z,-0.18
2022-12-17T09:19:09.480Z,-0.15
2022-12-17T09:21:56.351Z,-0.12
2022-12-17T09:24:41.739Z,-0.08
2022-12-17T09:27:27.198Z,-0.03
2022-12-17T09:30:12.503Z,0.01
2022-12-17T09:32:58.084Z,-0.04
2022-12-17T09:35:43.539Z,0.07
2022-12-17T09:38:33.396Z,0.09
2022-12-17T09:41:45.090Z,0.12
2022-12-17T09:44:41.950Z,0.11
2022-12-17T09:47:41.948Z,0.15
2022-12-17T09:50:33.598Z,0.20
2022-12-17T09:53:22.559Z,0.29
2022-12-17T09:56:11.923Z,0.35
2022-12-17T09:58:59.066Z,0.42
2022-12-17T10:01:51.953Z,0.52
2022-12-17T10:04:48.920Z,0.59
2022-12-17T10:07:39.724Z,0.67
2022-12-17T10:10:44.863Z,0.78
2022-12-17T10:13:38.846Z,0.85
2022-12-17T10:16:46.492Z,0.88
2022-12-17T10:19:48.990Z,0.95
2022-12-17T10:22:39.420Z,0.96
2022-12-17T10:25:40.116Z,1.08
2022-12-17T10:28:37.472Z,1.14
2022-12-17T10:31:39.782Z,1.22
2022-12-17T10:34:30.626Z,1.28
2022-12-17T10:37:16.308Z,1.35
2022-12-17T10:40:01.837Z,1.34
2022-12-17T10:42:50.352Z,1.43
2022-12-17T10:45:54.433Z,1.45
2022-12-17T10:48:50.608Z,1.49
2022-12-17T10:51:53.054Z,1.38
2022-12-17T10:54:49.701Z,1.54
2022-12-17T10:57:43.034Z,1.54
2022-12-17T11:00:50.214Z,1.56
2022-12-17T11:03:52.871Z,1.58
2022-12-17T11:06:48.540Z,1.59
2022-12-17T11:09:49.023Z,1.60
2022-12-17T11:12:36.365Z,1.63
2022-12-17T11:16:01.387Z,1.64
2022-12-17T11:18:58.596Z,1.67
2022-12-17T11:21:50.195Z,1.69
2022-12-17T11:25:03.720Z,1.74
2022-12-17T11:27:55.536Z,1.78
2022-12-17T11:30:41.188Z,1.77
2022-12-17T11:34:07.941Z,1.88
2022-12-17T11:37:07.021Z,1.92
2022-12-17T11:40:17.735Z,1.98
2022-12-17T11:43:17.637Z,2.05
2022-12-17T11:46:47.379Z,2.09
2022-12-17T11:49:58.978Z,2.14
2022-12-17T11:53:09.599Z,2.20
2022-12-17T11:56:15.529Z,2.23
2022-12-17T11:59:35.014Z,2.27
2022-12-17T12:02:43.347Z,2.31
2022-12-17T12:06:12.694Z,2.35
2022-12-17T12:09:53.046Z,2.39
2022-12-17T12:13:02.379Z,2.45
2022-12-17T12:16:26.852Z,2.48
2022-12-17T12:19:33.727Z,2.53
2022-12-17T12:22:33.104Z,2.59
2022-12-17T12:25:53.109Z,2.63
2022-12-17T12:29:02.890Z,2.71
2022-12-17T12:31:54.324Z,2.77
2022-12-17T12:34:53.119Z,2.75
2022-12-17T12:37:40.036Z,2.86
2022-12-17T12:40:46.649Z,2.88
2022-12-17T12:43:49.028Z,2.91
2022-12-17T12:46:38.884Z,2.94
2022-12-17T12:49:45.866Z,2.99
2022-12-17T12:52:39.829Z,3.02
2022-12-17T12:55:25.590Z,3.07
2022-12-17T12:58:24.169Z,3.09
2022-12-17T13:01:12.183Z,3.13
2022-12-17T13:04:03.671Z,3.14
2022-12-17T13:06:54.346Z,3.15
2022-12-17T13:09:33.949Z,3.16
2022-12-17T13:12:04.392Z,3.17
2022-12-17T13:14:44.490Z,3.19
2022-12-17T13:17:17.427Z,3.20
2022-12-17T13:19:57.268Z,3.21
2022-12-17T13:22:24.802Z,3.23
2022-12-17T13:25:20.596Z,3.23
2022-12-17T13:27:48.820Z,3.25
2022-12-17T13:30:18.590Z,3.28
2022-12-17T13:33:25.539Z,3.23
2022-12-17T13:36:31.206Z,3.31
2022-12-17T13:39:56.173Z,3.31
2022-12-17T13:42:32.113Z,3.33
2022-12-17T13:44:59.844Z,3.36
2022-12-17T13:47:33.196Z,3.37
2022-12-17T13:50:32.907Z,3.39
2022-12-17T13:52:51.979Z,3.38
2022-12-17T13:55:26.641Z,3.39
2022-12-17T13:57:54.482Z,3.37
2022-12-17T14:00:30.927Z,3.38
2022-12-17T14:02:58.157Z,3.38
2022-12-17T14:05:33.241Z,3.38
2022-12-17T14:08:03.863Z,3.39
2022-12-17T14:10:31.336Z,3.40
2022-12-17T14:13:15.465Z,3.38
2022-12-17T14:15:52.790Z,3.37
2022-12-17T14:18:21.571Z,3.35
2022-12-17T14:20:51.408Z,3.29
2022-12-17T14:23:30.267Z,3.25
2022-12-17T14:25:57.437Z,3.20
2022-12-17T14:28:37.111Z,3.16
2022-12-17T14:34:11.170Z,3.05
2022-12-17T14:36:42.271Z,3.00
2022-12-17T14:39:24.510Z,2.96
2022-12-17T14:42:10.291Z,2.94
2022-12-17T14:44:50.364Z,2.90
2022-12-17T14:47:25.205Z,2.87
2022-12-17T14:49:56.646Z,2.84
2022-12-17T14:52:42.534Z,2.77
2022-12-17T14:55:57.877Z,2.74
2022-12-17T14:58:26.696Z,2.73
2022-12-17T15:01:09.118Z,2.71
2022-12-17T15:03:42.931Z,2.67
2022-12-17T15:06:13.982Z,2.66
2022-12-17T15:08:43.867Z,2.62
2022-12-17T15:11:14.417Z,2.57
2022-12-17T15:13:41.645Z,2.52
2022-12-17T15:16:08.879Z,2.48
2022-12-17T15:18:35.985Z,2.41
2022-12-17T15:21:03.723Z,2.38
2022-12-17T15:23:31.384Z,2.35
2022-12-17T15:25:58.277Z,2.31
2022-12-17T15:28:25.150Z,2.28
2022-12-17T15:30:52.126Z,2.25
2022-12-17T15:33:19.035Z,2.14
2022-12-17T15:35:45.925Z,2.18
2022-12-17T15:38:13.310Z,2.15
2022-12-17T15:40:40.627Z,2.10
2022-12-17T15:43:11.085Z,2.02
2022-12-17T15:45:47.913Z,2.02
2022-12-17T15:48:21.198Z,1.99
2022-12-17T15:50:49.734Z,1.94
2022-12-17T15:53:16.727Z,1.87
2022-12-17T15:55:43.602Z,1.86
2022-12-17T15:58:13.887Z,1.83
2022-12-17T16:00:40.775Z,1.80
2022-12-17T16:03:07.814Z,1.77
2022-12-17T16:05:34.796Z,1.70
2022-12-17T16:08:02.528Z,1.68
2022-12-17T16:10:30.164Z,1.65
2022-12-17T16:12:57.689Z,1.58
2022-12-17T16:15:24.690Z,1.56
2022-12-17T16:17:51.616Z,1.56
2022-12-17T16:20:19.957Z,1.54
2022-12-17T16:22:46.866Z,1.50
2022-12-17T16:25:14.174Z,1.47
2022-12-17T16:27:41.144Z,1.45
2022-12-17T16:30:11.157Z,1.43
2022-12-17T16:32:38.719Z,1.39
2022-12-17T16:35:06.510Z,1.33
2022-12-17T16:37:33.662Z,1.32
2022-12-17T16:40:00.859Z,1.31
2022-12-17T16:42:28.244Z,1.27
2022-12-17T16:44:55.151Z,1.25
2022-12-17T16:47:22.037Z,1.24
2022-12-17T16:49:50.971Z,1.22
2022-12-17T16:52:18.004Z,1.16
2022-12-17T16:54:45.017Z,1.17
2022-12-17T16:57:11.919Z,1.15
2022-12-17T16:59:38.805Z,1.11
2022-12-17T17:02:14.173Z,1.06
2022-12-17T17:04:41.208Z,1.04
2022-12-17T17:07:08.085Z,0.98
2022-12-17T17:09:34.972Z,0.96
2022-12-17T17:12:01.914Z,0.91
2022-12-17T17:14:28.831Z,0.83
2022-12-17T17:16:55.690Z,0.75
2022-12-17T17:19:22.576Z,0.79
2022-12-17T17:21:53.961Z,0.74
2022-12-17T17:24:25.401Z,0.69
2022-12-17T17:26:54.444Z,0.64
2022-12-17T17:29:22.250Z,0.60
2022-12-17T17:34:36.131Z,0.51
2022-12-17T17:37:03.006Z,0.43
2022-12-17T17:39:33.012Z,0.43
2022-12-17T17:42:00.155Z,0.38
2022-12-17T17:44:27.054Z,0.35
2022-12-17T17:46:55.308Z,0.31
2022-12-17T17:49:22.841Z,0.24
2022-12-17T17:52:08.839Z,0.22
2022-12-17T17:54:38.186Z,0.18
2022-12-17T17:57:05.076Z,0.14
2022-12-17T17:59:34.060Z,0.10
2022-12-17T18:02:02.599Z,0.06
2022-12-17T18:04:29.969Z,0.03
2022-12-17T18:09:43.751Z,-0.03
2022-12-17T18:12:29.541Z,-0.06
2022-12-17T18:17:46.051Z,-0.14
2022-12-17T18:20:14.020Z,-0.16
2022-12-17T18:22:40.938Z,-0.18
2022-12-17T18:25:08.022Z,-0.23
2022-12-17T18:27:34.917Z,-0.22
2022-12-17T18:30:01.803Z,-0.28
2022-12-17T18:32:28.747Z,-0.26
2022-12-17T18:34:55.783Z,-0.28
2022-12-17T18:37:22.735Z,-0.42
2022-12-17T18:39:49.627Z,-0.32
2022-12-17T18:42:34.923Z,-0.37
2022-12-17T18:45:02.857Z,-0.39
2022-12-17T18:47:29.802Z,-0.38
2022-12-17T18:49:57.380Z,-0.40
2022-12-17T18:52:24.478Z,-0.52
2022-12-17T18:54:51.357Z,-0.44
2022-12-17T18:57:18.227Z,-0.46
2022-12-17T18:59:45.114Z,-0.47
2022-12-17T19:02:13.755Z,-0.49
2022-12-17T19:04:41.208Z,-0.58
2022-12-17T19:07:08.087Z,-0.55
2022-12-17T19:09:36.001Z,-0.54
2022-12-17T19:12:05.937Z,-0.56
2022-12-17T19:14:34.102Z,-0.66
2022-12-17T19:17:01.319Z,-0.64
2022-12-17T19:19:28.328Z,-0.59
2022-12-17T19:21:56.020Z,-0.61
2022-12-17T19:24:23.598Z,-0.63
2022-12-17T19:26:52.001Z,-0.64
2022-12-17T19:29:20.402Z,-0.69
2022-12-17T19:31:47.991Z,-0.76
2022-12-17T19:34:17.213Z,-0.76
2022-12-17T19:36:45.542Z,-0.75
2022-12-17T19:39:17.505Z,-0.73
2022-12-17T19:41:44.960Z,-0.75
2022-12-17T19:44:14.462Z,-0.77
2022-12-17T19:46:43.320Z,-0.79
2022-12-17T19:49:15.508Z,-0.79
2022-12-17T19:51:44.255Z,-0.89
2022-12-17T19:54:15.240Z,-0.80
2022-12-17T19:56:44.563Z,-0.81
2022-12-17T19:59:13.467Z,-0.82
2022-12-17T20:01:45.022Z,-0.80
2022-12-17T20:04:13.609Z,-0.80
2022-12-17T20:06:42.074Z,-0.78
2022-12-17T20:09:08.978Z,-0.84
2022-12-17T20:11:36.775Z,-0.78
2022-12-17T20:14:07.470Z,-0.72
2022-12-17T20:16:48.664Z,-0.69
2022-12-17T20:19:25.391Z,-0.68
2022-12-17T20:21:53.526Z,-0.64
2022-12-17T20:24:23.549Z,-0.60
2022-12-17T20:26:54.888Z,-0.59
2022-12-17T20:29:24.635Z,-0.56
2022-12-17T20:31:53.004Z,-0.55
2022-12-17T20:34:21.590Z,-0.58
2022-12-17T20:36:48.965Z,-0.54
2022-12-17T20:39:16.174Z,-0.46
2022-12-17T20:41:44.394Z,-0.46
2022-12-17T20:44:14.577Z,-0.41
2022-12-17T20:46:42.676Z,-0.39
2022-12-17T20:49:12.040Z,-0.35
2022-12-17T20:51:39.438Z,-0.33
2022-12-17T20:54:08.345Z,-0.32
2022-12-17T20:56:36.207Z,-0.29
2022-12-17T20:59:06.929Z,-0.27
2022-12-17T21:01:36.319Z,-0.27
2022-12-17T21:04:06.305Z,-0.24
2022-12-17T21:06:39.740Z,-0.22
2022-12-17T21:09:07.622Z,-0.18
2022-12-17T21:11:36.980Z,-0.16
2022-12-17T21:14:07.978Z,-0.22
2022-12-17T21:16:35.958Z,-0.14
2022-12-17T21:19:04.948Z,-0.14
2022-12-17T21:21:35.394Z,-0.11
2022-12-17T21:24:02.319Z,-0.12
2022-12-17T21:26:38.677Z,-0.12
2022-12-17T21:29:07.537Z,-0.11
2022-12-17T21:31:50.164Z,-0.11
2022-12-17T21:34:23.051Z,-0.11
2022-12-17T21:36:51.412Z,-0.09
2022-12-17T21:39:19.241Z,-0.10
2022-12-17T21:42:07.665Z,-0.11
2022-12-17T21:44:35.643Z,-0.10
2022-12-17T21:47:02.532Z,-0.09
2022-12-17T21:49:29.591Z,-0.19
2022-12-17T21:51:59.193Z,-0.08
2022-12-17T21:54:26.167Z,-0.07
2022-12-17T21:56:53.060Z,-0.06
2022-12-17T21:59:19.932Z,-0.05
2022-12-17T22:01:46.927Z,-0.06
2022-12-17T22:04:14.049Z,-0.06
2022-12-17T22:06:45.572Z,-0.07
2022-12-17T22:09:37.773Z,-0.09
2022-12-17T22:12:29.533Z,-0.08
2022-12-17T22:14:56.405Z,-0.09
2022-12-17T22:17:23.784Z,-0.10
2022-12-17T22:19:50.733Z,-0.10
2022-12-17T22:22:17.624Z,-0.11
2022-12-17T22:24:44.505Z,-0.11
2022-12-17T22:27:11.483Z,-0.11
2022-12-17T22:29:57.241Z,-0.11
2022-12-17T22:32:42.830Z,-0.11
2022-12-17T22:36:11.546Z,-0.12
2022-12-17T22:40:00.405Z,-0.11
2022-12-17T22:44:33.477Z,-0.12
2022-12-17T22:44:46.802Z,-0.13
2022-12-17T22:46:18.428Z,-0.12
2022-12-17T22:48:45.503Z,-0.13
2022-12-17T22:51:20.851Z,-0.13
2022-12-17T22:53:54.916Z,-0.13
2022-12-17T22:56:44.567Z,-0.26
2022-12-17T22:59:18.425Z,-0.11
2022-12-17T23:01:45.891Z,-0.10
2022-12-17T23:04:15.685Z,-0.12
2022-12-17T23:06:48.059Z,-0.11
2022-12-17T23:09:19.168Z,-0.10
2022-12-17T23:11:47.963Z,-0.11
2022-12-17T23:14:17.070Z,-0.11
2022-12-17T23:16:44.132Z,-0.11
2022-12-17T23:19:11.702Z,-0.15
2022-12-17T23:21:38.869Z,-0.12
2022-12-17T23:24:06.721Z,-0.13
2022-12-17T23:26:36.564Z,-0.13
2022-12-17T23:29:08.473Z,-0.15
2022-12-17T23:31:38.652Z,-0.16
2022-12-17T23:34:06.043Z,-0.23
2022-12-17T23:36:33.275Z,-0.20
2022-12-17T23:39:00.283Z,-0.20
2022-12-17T23:41:30.249Z,-0.20
2022-12-17T23:43:59.027Z,-0.20
2022-12-17T23:46:28.563Z,-0.21
2022-12-17T23:48:55.600Z,-0.25
2022-12-17T23:51:24.158Z,-0.23
2022-12-17T23:53:51.122Z,-0.24
2022-12-17T23:56:23.183Z,-0.29
2022-12-17T23:58:55.457Z,-0.24
